sensor_id;sensor_type;location;lat;lon;timestamp;P1;durP1;ratioP1;P2;durP2;ratioP2
21181;SDS011;10749;46.296;7.524;2023-06-10T00:02:09;12.52;;;11.32;;
21181;SDS011;10749;46.296;7.524;2023-06-10T00:04:35;11.88;;;10.73;;
21181;SDS011;10749;46.296;7.524;2023-06-10T00:07:04;12.93;;;11.73;;
21181;SDS011;10749;46.296;7.524;2023-06-10T00:09:33;12.90;;;11.63;;
21181;SDS011;10749;46.296;7.524;2023-06-10T00:12:03;12.07;;;10.98;;
21181;SDS011;10749;46.296;7.524;2023-06-10T00:14:30;12.30;;;11.10;;
21181;SDS011;10749;46.296;7.524;2023-06-10T00:16:55;12.90;;;11.60;;
21181;SDS011;10749;46.296;7.524;2023-06-10T00:19:22;12.50;;;11.30;;
21181;SDS011;10749;46.296;7.524;2023-06-10T00:21:50;13.00;;;11.80;;
21181;SDS011;10749;46.296;7.524;2023-06-10T00:24:17;11.95;;;10.85;;
21181;SDS011;10749;46.296;7.524;2023-06-10T00:26:42;12.05;;;10.95;;
21181;SDS011;10749;46.296;7.524;2023-06-10T00:29:08;11.30;;;10.20;;
21181;SDS011;10749;46.296;7.524;2023-06-10T00:31:34;12.93;;;11.63;;
21181;SDS011;10749;46.296;7.524;2023-06-10T00:34:00;12.68;;;11.52;;
21181;SDS011;10749;46.296;7.524;2023-06-10T00:36:25;13.27;;;11.98;;
21181;SDS011;10749;46.296;7.524;2023-06-10T00:38:51;13.85;;;11.80;;
21181;SDS011;10749;46.296;7.524;2023-06-10T00:41:16;12.60;;;11.45;;
21181;SDS011;10749;46.296;7.524;2023-06-10T00:43:41;12.68;;;11.52;;
21181;SDS011;10749;46.296;7.524;2023-06-10T00:46:07;12.88;;;11.68;;
21181;SDS011;10749;46.296;7.524;2023-06-10T00:48:32;12.02;;;10.93;;
21181;SDS011;10749;46.296;7.524;2023-06-10T00:50:58;12.50;;;11.30;;
21181;SDS011;10749;46.296;7.524;2023-06-10T00:53:24;12.55;;;11.25;;
21181;SDS011;10749;46.296;7.524;2023-06-10T00:55:50;12.27;;;10.98;;
21181;SDS011;10749;46.296;7.524;2023-06-10T00:58:16;11.75;;;10.73;;
21181;SDS011;10749;46.296;7.524;2023-06-10T01:00:41;12.95;;;11.55;;
21181;SDS011;10749;46.296;7.524;2023-06-10T01:03:07;13.13;;;11.27;;
21181;SDS011;10749;46.296;7.524;2023-06-10T01:05:33;13.15;;;11.85;;
21181;SDS011;10749;46.296;7.524;2023-06-10T01:08:03;12.70;;;11.50;;
21181;SDS011;10749;46.296;7.524;2023-06-10T01:10:38;12.25;;;11.15;;
21181;SDS011;10749;46.296;7.524;2023-06-10T01:13:12;12.88;;;11.60;;
21181;SDS011;10749;46.296;7.524;2023-06-10T01:15:38;12.65;;;11.45;;
21181;SDS011;10749;46.296;7.524;2023-06-10T01:18:08;12.75;;;11.50;;
21181;SDS011;10749;46.296;7.524;2023-06-10T01:20:35;13.27;;;11.55;;
21181;SDS011;10749;46.296;7.524;2023-06-10T01:23:04;12.52;;;11.13;;
21181;SDS011;10749;46.296;7.524;2023-06-10T01:25:31;13.00;;;11.68;;
21181;SDS011;10749;46.296;7.524;2023-06-10T01:28:06;12.13;;;11.02;;
21181;SDS011;10749;46.296;7.524;2023-06-10T01:33:17;12.90;;;11.50;;
21181;SDS011;10749;46.296;7.524;2023-06-10T01:35:48;13.43;;;12.18;;
21181;SDS011;10749;46.296;7.524;2023-06-10T01:38:15;13.40;;;12.10;;
21181;SDS011;10749;46.296;7.524;2023-06-10T01:40:43;13.80;;;12.48;;
21181;SDS011;10749;46.296;7.524;2023-06-10T01:43:09;12.85;;;11.40;;
21181;SDS011;10749;46.296;7.524;2023-06-10T01:45:34;13.10;;;11.70;;
21181;SDS011;10749;46.296;7.524;2023-06-10T01:47:59;14.65;;;12.18;;
21181;SDS011;10749;46.296;7.524;2023-06-10T01:50:25;12.98;;;11.77;;
21181;SDS011;10749;46.296;7.524;2023-06-10T01:52:50;15.00;;;13.18;;
21181;SDS011;10749;46.296;7.524;2023-06-10T01:55:15;13.73;;;12.30;;
21181;SDS011;10749;46.296;7.524;2023-06-10T01:57:41;14.13;;;12.35;;
21181;SDS011;10749;46.296;7.524;2023-06-10T02:00:06;14.77;;;13.27;;
21181;SDS011;10749;46.296;7.524;2023-06-10T02:02:33;14.00;;;11.85;;
21181;SDS011;10749;46.296;7.524;2023-06-10T02:04:58;13.93;;;12.52;;
21181;SDS011;10749;46.296;7.524;2023-06-10T02:07:23;14.65;;;13.07;;
21181;SDS011;10749;46.296;7.524;2023-06-10T02:09:48;14.40;;;12.95;;
21181;SDS011;10749;46.296;7.524;2023-06-10T02:12:14;14.15;;;12.85;;
21181;SDS011;10749;46.296;7.524;2023-06-10T02:14:39;15.77;;;14.30;;
21181;SDS011;10749;46.296;7.524;2023-06-10T02:17:04;14.70;;;13.30;;
21181;SDS011;10749;46.296;7.524;2023-06-10T02:19:30;15.68;;;14.20;;
21181;SDS011;10749;46.296;7.524;2023-06-10T02:21:55;15.35;;;13.77;;
21181;SDS011;10749;46.296;7.524;2023-06-10T02:24:21;16.17;;;14.60;;
21181;SDS011;10749;46.296;7.524;2023-06-10T02:26:46;15.05;;;13.52;;
21181;SDS011;10749;46.296;7.524;2023-06-10T02:29:12;15.68;;;14.05;;
21181;SDS011;10749;46.296;7.524;2023-06-10T02:31:38;15.65;;;13.88;;
21181;SDS011;10749;46.296;7.524;2023-06-10T02:34:04;16.50;;;14.90;;
21181;SDS011;10749;46.296;7.524;2023-06-10T02:36:29;15.00;;;13.48;;
21181;SDS011;10749;46.296;7.524;2023-06-10T02:38:55;16.65;;;14.95;;
21181;SDS011;10749;46.296;7.524;2023-06-10T02:41:20;16.27;;;14.68;;
21181;SDS011;10749;46.296;7.524;2023-06-10T02:43:46;15.93;;;14.27;;
21181;SDS011;10749;46.296;7.524;2023-06-10T02:46:12;16.60;;;14.85;;
21181;SDS011;10749;46.296;7.524;2023-06-10T02:48:41;17.15;;;15.30;;
21181;SDS011;10749;46.296;7.524;2023-06-10T02:51:08;17.20;;;15.52;;
21181;SDS011;10749;46.296;7.524;2023-06-10T02:53:33;16.48;;;14.80;;
21181;SDS011;10749;46.296;7.524;2023-06-10T02:55:58;17.50;;;15.70;;
21181;SDS011;10749;46.296;7.524;2023-06-10T02:58:24;17.77;;;15.75;;
21181;SDS011;10749;46.296;7.524;2023-06-10T03:00:51;17.45;;;15.85;;
21181;SDS011;10749;46.296;7.524;2023-06-10T03:03:16;17.80;;;16.00;;
21181;SDS011;10749;46.296;7.524;2023-06-10T03:05:41;18.92;;;16.95;;
21181;SDS011;10749;46.296;7.524;2023-06-10T03:08:06;19.10;;;17.30;;
21181;SDS011;10749;46.296;7.524;2023-06-10T03:10:32;18.55;;;16.65;;
21181;SDS011;10749;46.296;7.524;2023-06-10T03:12:58;18.00;;;16.27;;
21181;SDS011;10749;46.296;7.524;2023-06-10T03:15:23;20.02;;;17.80;;
21181;SDS011;10749;46.296;7.524;2023-06-10T03:17:49;19.70;;;17.67;;
21181;SDS011;10749;46.296;7.524;2023-06-10T03:20:14;19.05;;;17.05;;
21181;SDS011;10749;46.296;7.524;2023-06-10T03:22:41;19.38;;;17.55;;
21181;SDS011;10749;46.296;7.524;2023-06-10T03:25:07;19.52;;;17.42;;
21181;SDS011;10749;46.296;7.524;2023-06-10T03:27:38;19.10;;;17.23;;
21181;SDS011;10749;46.296;7.524;2023-06-10T03:30:03;19.60;;;17.70;;
21181;SDS011;10749;46.296;7.524;2023-06-10T03:32:28;18.88;;;16.98;;
21181;SDS011;10749;46.296;7.524;2023-06-10T03:34:54;18.90;;;17.08;;
21181;SDS011;10749;46.296;7.524;2023-06-10T03:37:22;19.70;;;17.70;;
21181;SDS011;10749;46.296;7.524;2023-06-10T03:39:47;20.30;;;17.30;;
21181;SDS011;10749;46.296;7.524;2023-06-10T03:42:12;18.63;;;16.92;;
21181;SDS011;10749;46.296;7.524;2023-06-10T03:44:38;19.23;;;17.33;;
21181;SDS011;10749;46.296;7.524;2023-06-10T03:47:03;19.15;;;17.08;;
21181;SDS011;10749;46.296;7.524;2023-06-10T03:49:29;20.05;;;17.15;;
21181;SDS011;10749;46.296;7.524;2023-06-10T03:51:55;19.33;;;17.38;;
21181;SDS011;10749;46.296;7.524;2023-06-10T03:54:20;19.05;;;17.05;;
21181;SDS011;10749;46.296;7.524;2023-06-10T03:56:47;18.48;;;16.67;;
21181;SDS011;10749;46.296;7.524;2023-06-10T03:59:13;19.25;;;17.25;;
21181;SDS011;10749;46.296;7.524;2023-06-10T04:01:38;18.05;;;16.15;;
21181;SDS011;10749;46.296;7.524;2023-06-10T04:04:06;18.08;;;16.17;;
21181;SDS011;10749;46.296;7.524;2023-06-10T04:06:31;18.92;;;17.02;;
21181;SDS011;10749;46.296;7.524;2023-06-10T04:08:56;17.77;;;15.98;;
21181;SDS011;10749;46.296;7.524;2023-06-10T04:11:23;18.65;;;16.77;;
21181;SDS011;10749;46.296;7.524;2023-06-10T04:13:49;17.75;;;15.95;;
21181;SDS011;10749;46.296;7.524;2023-06-10T04:16:14;17.58;;;15.82;;
21181;SDS011;10749;46.296;7.524;2023-06-10T04:18:40;17.80;;;16.00;;
21181;SDS011;10749;46.296;7.524;2023-06-10T04:21:06;17.80;;;15.95;;
21181;SDS011;10749;46.296;7.524;2023-06-10T04:23:32;17.33;;;15.63;;
21181;SDS011;10749;46.296;7.524;2023-06-10T04:25:57;17.08;;;15.43;;
21181;SDS011;10749;46.296;7.524;2023-06-10T04:28:24;18.05;;;16.23;;
21181;SDS011;10749;46.296;7.524;2023-06-10T04:30:49;16.65;;;15.00;;
21181;SDS011;10749;46.296;7.524;2023-06-10T04:33:15;16.23;;;14.63;;
21181;SDS011;10749;46.296;7.524;2023-06-10T04:35:41;19.42;;;15.80;;
21181;SDS011;10749;46.296;7.524;2023-06-10T04:38:07;16.98;;;15.30;;
21181;SDS011;10749;46.296;7.524;2023-06-10T04:40:32;17.25;;;15.45;;
21181;SDS011;10749;46.296;7.524;2023-06-10T04:42:58;16.98;;;15.38;;
21181;SDS011;10749;46.296;7.524;2023-06-10T04:45:23;16.65;;;14.65;;
21181;SDS011;10749;46.296;7.524;2023-06-10T04:47:49;15.38;;;13.68;;
21181;SDS011;10749;46.296;7.524;2023-06-10T04:50:14;14.88;;;13.38;;
21181;SDS011;10749;46.296;7.524;2023-06-10T04:52:40;15.30;;;13.80;;
21181;SDS011;10749;46.296;7.524;2023-06-10T04:55:06;13.90;;;12.50;;
21181;SDS011;10749;46.296;7.524;2023-06-10T04:57:32;12.32;;;11.13;;
21181;SDS011;10749;46.296;7.524;2023-06-10T04:59:57;12.75;;;11.48;;
21181;SDS011;10749;46.296;7.524;2023-06-10T05:02:23;11.32;;;10.13;;
21181;SDS011;10749;46.296;7.524;2023-06-10T05:04:48;12.00;;;10.70;;
21181;SDS011;10749;46.296;7.524;2023-06-10T05:07:13;12.30;;;10.98;;
21181;SDS011;10749;46.296;7.524;2023-06-10T05:09:39;10.75;;;9.65;;
21181;SDS011;10749;46.296;7.524;2023-06-10T05:12:04;9.38;;;8.48;;
21181;SDS011;10749;46.296;7.524;2023-06-10T05:14:30;10.35;;;9.35;;
21181;SDS011;10749;46.296;7.524;2023-06-10T05:16:56;10.35;;;9.32;;
21181;SDS011;10749;46.296;7.524;2023-06-10T05:19:21;11.90;;;10.15;;
21181;SDS011;10749;46.296;7.524;2023-06-10T05:21:47;12.07;;;10.25;;
21181;SDS011;10749;46.296;7.524;2023-06-10T05:24:13;10.50;;;9.45;;
21181;SDS011;10749;46.296;7.524;2023-06-10T05:26:38;10.65;;;9.65;;
21181;SDS011;10749;46.296;7.524;2023-06-10T05:29:04;10.50;;;9.50;;
21181;SDS011;10749;46.296;7.524;2023-06-10T05:31:30;9.50;;;8.65;;
21181;SDS011;10749;46.296;7.524;2023-06-10T05:33:55;9.82;;;8.93;;
21181;SDS011;10749;46.296;7.524;2023-06-10T05:36:20;9.63;;;8.50;;
21181;SDS011;10749;46.296;7.524;2023-06-10T05:38:46;9.93;;;8.93;;
21181;SDS011;10749;46.296;7.524;2023-06-10T05:41:11;9.05;;;8.20;;
21181;SDS011;10749;46.296;7.524;2023-06-10T05:43:37;8.35;;;7.55;;
21181;SDS011;10749;46.296;7.524;2023-06-10T05:46:02;8.20;;;7.38;;
21181;SDS011;10749;46.296;7.524;2023-06-10T05:48:27;8.48;;;7.70;;
21181;SDS011;10749;46.296;7.524;2023-06-10T05:50:52;8.57;;;7.68;;
21181;SDS011;10749;46.296;7.524;2023-06-10T05:53:18;8.05;;;7.25;;
21181;SDS011;10749;46.296;7.524;2023-06-10T05:55:43;10.15;;;7.68;;
21181;SDS011;10749;46.296;7.524;2023-06-10T05:58:10;8.35;;;7.45;;
21181;SDS011;10749;46.296;7.524;2023-06-10T06:00:37;8.52;;;7.50;;
21181;SDS011;10749;46.296;7.524;2023-06-10T06:03:03;8.05;;;7.25;;
21181;SDS011;10749;46.296;7.524;2023-06-10T06:05:28;8.00;;;7.20;;
21181;SDS011;10749;46.296;7.524;2023-06-10T06:07:59;8.65;;;7.55;;
21181;SDS011;10749;46.296;7.524;2023-06-10T06:10:25;8.27;;;7.47;;
21181;SDS011;10749;46.296;7.524;2023-06-10T06:12:50;10.00;;;8.07;;
21181;SDS011;10749;46.296;7.524;2023-06-10T06:15:15;8.52;;;7.72;;
21181;SDS011;10749;46.296;7.524;2023-06-10T06:17:41;8.45;;;7.65;;
21181;SDS011;10749;46.296;7.524;2023-06-10T06:20:06;8.30;;;7.50;;
21181;SDS011;10749;46.296;7.524;2023-06-10T06:22:32;10.10;;;8.00;;
21181;SDS011;10749;46.296;7.524;2023-06-10T06:24:57;9.25;;;8.43;;
21181;SDS011;10749;46.296;7.524;2023-06-10T06:27:22;8.68;;;7.88;;
21181;SDS011;10749;46.296;7.524;2023-06-10T06:29:47;8.70;;;7.55;;
21181;SDS011;10749;46.296;7.524;2023-06-10T06:32:13;8.27;;;7.45;;
21181;SDS011;10749;46.296;7.524;2023-06-10T06:34:38;7.68;;;6.90;;
21181;SDS011;10749;46.296;7.524;2023-06-10T06:37:03;8.27;;;7.13;;
21181;SDS011;10749;46.296;7.524;2023-06-10T06:39:29;8.57;;;6.75;;
21181;SDS011;10749;46.296;7.524;2023-06-10T06:41:54;8.18;;;6.57;;
21181;SDS011;10749;46.296;7.524;2023-06-10T06:44:20;7.95;;;7.15;;
21181;SDS011;10749;46.296;7.524;2023-06-10T06:46:45;7.72;;;6.93;;
21181;SDS011;10749;46.296;7.524;2023-06-10T06:49:10;7.75;;;6.72;;
21181;SDS011;10749;46.296;7.524;2023-06-10T06:51:35;7.07;;;6.38;;
21181;SDS011;10749;46.296;7.524;2023-06-10T06:54:02;7.78;;;7.07;;
21181;SDS011;10749;46.296;7.524;2023-06-10T06:56:27;8.70;;;7.25;;
21181;SDS011;10749;46.296;7.524;2023-06-10T06:58:53;8.18;;;7.38;;
21181;SDS011;10749;46.296;7.524;2023-06-10T07:01:18;7.60;;;6.85;;
21181;SDS011;10749;46.296;7.524;2023-06-10T07:03:43;8.38;;;7.57;;
21181;SDS011;10749;46.296;7.524;2023-06-10T07:06:09;8.25;;;6.43;;
21181;SDS011;10749;46.296;7.524;2023-06-10T07:08:34;7.25;;;6.55;;
21181;SDS011;10749;46.296;7.524;2023-06-10T07:11:00;7.93;;;7.03;;
21181;SDS011;10749;46.296;7.524;2023-06-10T07:13:25;7.20;;;6.50;;
21181;SDS011;10749;46.296;7.524;2023-06-10T07:15:50;7.18;;;6.57;;
21181;SDS011;10749;46.296;7.524;2023-06-10T07:18:15;8.73;;;6.50;;
21181;SDS011;10749;46.296;7.524;2023-06-10T07:20:42;7.22;;;6.55;;
21181;SDS011;10749;46.296;7.524;2023-06-10T07:23:07;6.93;;;5.68;;
21181;SDS011;10749;46.296;7.524;2023-06-10T07:25:32;6.50;;;5.90;;
21181;SDS011;10749;46.296;7.524;2023-06-10T07:27:58;6.90;;;6.20;;
21181;SDS011;10749;46.296;7.524;2023-06-10T07:30:23;5.68;;;5.18;;
21181;SDS011;10749;46.296;7.524;2023-06-10T07:32:48;5.45;;;4.95;;
21181;SDS011;10749;46.296;7.524;2023-06-10T07:35:14;5.25;;;4.75;;
21181;SDS011;10749;46.296;7.524;2023-06-10T07:37:39;5.40;;;4.90;;
21181;SDS011;10749;46.296;7.524;2023-06-10T07:40:04;5.75;;;5.25;;
21181;SDS011;10749;46.296;7.524;2023-06-10T07:42:35;5.95;;;5.40;;
21181;SDS011;10749;46.296;7.524;2023-06-10T07:45:02;5.68;;;5.10;;
21181;SDS011;10749;46.296;7.524;2023-06-10T07:47:30;5.05;;;4.28;;
21181;SDS011;10749;46.296;7.524;2023-06-10T07:49:57;5.10;;;4.60;;
21181;SDS011;10749;46.296;7.524;2023-06-10T07:52:23;6.75;;;6.15;;
21181;SDS011;10749;46.296;7.524;2023-06-10T07:54:48;8.68;;;7.85;;
21181;SDS011;10749;46.296;7.524;2023-06-10T07:57:13;8.55;;;7.70;;
21181;SDS011;10749;46.296;7.524;2023-06-10T07:59:39;7.35;;;6.72;;
21181;SDS011;10749;46.296;7.524;2023-06-10T08:02:04;6.47;;;5.82;;
21181;SDS011;10749;46.296;7.524;2023-06-10T08:04:30;7.97;;;7.28;;
21181;SDS011;10749;46.296;7.524;2023-06-10T08:06:56;7.57;;;6.88;;
21181;SDS011;10749;46.296;7.524;2023-06-10T08:09:21;7.68;;;6.97;;
21181;SDS011;10749;46.296;7.524;2023-06-10T08:11:48;5.93;;;5.43;;
21181;SDS011;10749;46.296;7.524;2023-06-10T08:14:14;7.07;;;6.03;;
21181;SDS011;10749;46.296;7.524;2023-06-10T08:16:39;6.22;;;5.63;;
21181;SDS011;10749;46.296;7.524;2023-06-10T08:19:05;6.45;;;5.63;;
21181;SDS011;10749;46.296;7.524;2023-06-10T08:21:30;6.90;;;6.30;;
21181;SDS011;10749;46.296;7.524;2023-06-10T08:23:56;6.50;;;5.90;;
21181;SDS011;10749;46.296;7.524;2023-06-10T08:26:21;6.43;;;5.82;;
21181;SDS011;10749;46.296;7.524;2023-06-10T08:28:47;6.18;;;5.68;;
21181;SDS011;10749;46.296;7.524;2023-06-10T08:31:12;5.78;;;5.18;;
21181;SDS011;10749;46.296;7.524;2023-06-10T08:33:37;6.43;;;5.82;;
21181;SDS011;10749;46.296;7.524;2023-06-10T08:36:03;6.43;;;5.82;;
21181;SDS011;10749;46.296;7.524;2023-06-10T08:38:28;4.80;;;4.30;;
21181;SDS011;10749;46.296;7.524;2023-06-10T08:40:55;5.00;;;4.60;;
21181;SDS011;10749;46.296;7.524;2023-06-10T08:43:45;5.55;;;5.05;;
21181;SDS011;10749;46.296;7.524;2023-06-10T08:46:12;4.63;;;4.22;;
21181;SDS011;10749;46.296;7.524;2023-06-10T08:48:41;4.80;;;4.35;;
21181;SDS011;10749;46.296;7.524;2023-06-10T08:51:09;5.05;;;4.65;;
21181;SDS011;10749;46.296;7.524;2023-06-10T08:53:36;6.00;;;4.93;;
21181;SDS011;10749;46.296;7.524;2023-06-10T08:56:03;7.00;;;4.63;;
21181;SDS011;10749;46.296;7.524;2023-06-10T08:58:30;4.95;;;4.45;;
21181;SDS011;10749;46.296;7.524;2023-06-10T09:00:58;5.03;;;4.40;;
21181;SDS011;10749;46.296;7.524;2023-06-10T09:03:24;4.60;;;4.20;;
21181;SDS011;10749;46.296;7.524;2023-06-10T09:05:50;4.68;;;4.28;;
21181;SDS011;10749;46.296;7.524;2023-06-10T09:08:16;4.30;;;3.90;;
21181;SDS011;10749;46.296;7.524;2023-06-10T09:10:41;5.28;;;4.55;;
21181;SDS011;10749;46.296;7.524;2023-06-10T09:13:07;5.03;;;4.57;;
21181;SDS011;10749;46.296;7.524;2023-06-10T09:15:32;5.05;;;4.55;;
21181;SDS011;10749;46.296;7.524;2023-06-10T09:17:58;5.40;;;4.90;;
21181;SDS011;10749;46.296;7.524;2023-06-10T09:20:24;6.22;;;5.00;;
21181;SDS011;10749;46.296;7.524;2023-06-10T09:22:50;4.97;;;4.47;;
21181;SDS011;10749;46.296;7.524;2023-06-10T09:25:15;5.40;;;4.90;;
21181;SDS011;10749;46.296;7.524;2023-06-10T09:27:47;6.22;;;5.65;;
21181;SDS011;10749;46.296;7.524;2023-06-10T09:30:25;6.03;;;5.43;;
21181;SDS011;10749;46.296;7.524;2023-06-10T09:32:53;8.73;;;4.95;;
21181;SDS011;10749;46.296;7.524;2023-06-10T09:35:22;5.75;;;5.20;;
21181;SDS011;10749;46.296;7.524;2023-06-10T09:37:49;5.25;;;4.78;;
21181;SDS011;10749;46.296;7.524;2023-06-10T09:40:16;5.55;;;4.90;;
21181;SDS011;10749;46.296;7.524;2023-06-10T09:42:42;5.50;;;5.00;;
21181;SDS011;10749;46.296;7.524;2023-06-10T09:45:07;5.70;;;5.20;;
21181;SDS011;10749;46.296;7.524;2023-06-10T09:47:33;5.43;;;4.88;;
21181;SDS011;10749;46.296;7.524;2023-06-10T09:49:58;5.18;;;4.78;;
21181;SDS011;10749;46.296;7.524;2023-06-10T09:52:24;5.13;;;4.63;;
21181;SDS011;10749;46.296;7.524;2023-06-10T09:54:53;5.20;;;4.70;;
21181;SDS011;10749;46.296;7.524;2023-06-10T09:57:24;4.72;;;4.32;;
21181;SDS011;10749;46.296;7.524;2023-06-10T09:59:53;4.90;;;4.50;;
21181;SDS011;10749;46.296;7.524;2023-06-10T10:02:19;5.60;;;5.10;;
21181;SDS011;10749;46.296;7.524;2023-06-10T10:04:44;5.57;;;4.95;;
21181;SDS011;10749;46.296;7.524;2023-06-10T10:07:10;5.78;;;5.28;;
21181;SDS011;10749;46.296;7.524;2023-06-10T10:09:40;5.82;;;5.32;;
21181;SDS011;10749;46.296;7.524;2023-06-10T10:12:07;5.95;;;5.35;;
21181;SDS011;10749;46.296;7.524;2023-06-10T10:14:35;5.95;;;5.45;;
21181;SDS011;10749;46.296;7.524;2023-06-10T10:17:01;6.35;;;5.57;;
21181;SDS011;10749;46.296;7.524;2023-06-10T10:19:31;5.47;;;4.97;;
21181;SDS011;10749;46.296;7.524;2023-06-10T10:22:04;5.75;;;4.82;;
21181;SDS011;10749;46.296;7.524;2023-06-10T10:24:39;4.50;;;4.10;;
21181;SDS011;10749;46.296;7.524;2023-06-10T10:27:20;5.03;;;4.50;;
21181;SDS011;10749;46.296;7.524;2023-06-10T10:29:51;5.10;;;4.60;;
21181;SDS011;10749;46.296;7.524;2023-06-10T10:32:18;5.63;;;5.18;;
21181;SDS011;10749;46.296;7.524;2023-06-10T10:37:17;5.35;;;4.90;;
21181;SDS011;10749;46.296;7.524;2023-06-10T10:39:44;5.38;;;4.88;;
21181;SDS011;10749;46.296;7.524;2023-06-10T10:42:09;5.65;;;5.10;;
21181;SDS011;10749;46.296;7.524;2023-06-10T10:44:37;4.93;;;4.53;;
21181;SDS011;10749;46.296;7.524;2023-06-10T10:47:03;5.50;;;5.00;;
21181;SDS011;10749;46.296;7.524;2023-06-10T10:49:32;5.63;;;4.63;;
21181;SDS011;10749;46.296;7.524;2023-06-10T10:52:00;5.03;;;4.55;;
21181;SDS011;10749;46.296;7.524;2023-06-10T10:54:30;4.78;;;4.38;;
21181;SDS011;10749;46.296;7.524;2023-06-10T10:57:13;6.20;;;4.50;;
21181;SDS011;10749;46.296;7.524;2023-06-10T11:04:46;4.93;;;4.43;;
21181;SDS011;10749;46.296;7.524;2023-06-10T11:07:12;4.75;;;4.35;;
21181;SDS011;10749;46.296;7.524;2023-06-10T11:09:57;4.35;;;3.95;;
21181;SDS011;10749;46.296;7.524;2023-06-10T11:12:25;5.15;;;4.65;;
21181;SDS011;10749;46.296;7.524;2023-06-10T11:14:54;4.63;;;4.22;;
21181;SDS011;10749;46.296;7.524;2023-06-10T11:17:20;5.38;;;4.68;;
21181;SDS011;10749;46.296;7.524;2023-06-10T11:19:46;5.15;;;4.65;;
21181;SDS011;10749;46.296;7.524;2023-06-10T11:22:15;6.40;;;5.63;;
21181;SDS011;10749;46.296;7.524;2023-06-10T11:24:44;6.53;;;5.82;;
21181;SDS011;10749;46.296;7.524;2023-06-10T11:27:22;6.18;;;5.07;;
21181;SDS011;10749;46.296;7.524;2023-06-10T11:32:31;4.57;;;4.18;;
21181;SDS011;10749;46.296;7.524;2023-06-10T11:34:58;5.07;;;4.57;;
21181;SDS011;10749;46.296;7.524;2023-06-10T11:37:25;4.95;;;4.45;;
21181;SDS011;10749;46.296;7.524;2023-06-10T11:39:54;5.28;;;4.82;;
21181;SDS011;10749;46.296;7.524;2023-06-10T11:42:20;5.57;;;4.97;;
21181;SDS011;10749;46.296;7.524;2023-06-10T11:44:50;5.40;;;4.90;;
21181;SDS011;10749;46.296;7.524;2023-06-10T11:47:19;5.00;;;4.60;;
21181;SDS011;10749;46.296;7.524;2023-06-10T11:49:45;4.10;;;3.70;;
21181;SDS011;10749;46.296;7.524;2023-06-10T11:52:11;3.67;;;3.35;;
21181;SDS011;10749;46.296;7.524;2023-06-10T11:54:37;4.50;;;3.72;;
21181;SDS011;10749;46.296;7.524;2023-06-10T11:57:03;4.00;;;3.70;;
21181;SDS011;10749;46.296;7.524;2023-06-10T11:59:29;4.38;;;3.40;;
21181;SDS011;10749;46.296;7.524;2023-06-10T12:01:55;4.00;;;3.60;;
21181;SDS011;10749;46.296;7.524;2023-06-10T12:04:21;4.90;;;3.92;;
21181;SDS011;10749;46.296;7.524;2023-06-10T12:06:47;4.07;;;3.75;;
21181;SDS011;10749;46.296;7.524;2023-06-10T12:09:21;3.30;;;3.00;;
21181;SDS011;10749;46.296;7.524;2023-06-10T12:17:42;4.68;;;4.28;;
21181;SDS011;10749;46.296;7.524;2023-06-10T12:20:08;4.05;;;3.75;;
21181;SDS011;10749;46.296;7.524;2023-06-10T12:22:42;4.78;;;4.38;;
21181;SDS011;10749;46.296;7.524;2023-06-10T12:25:09;4.93;;;4.43;;
21181;SDS011;10749;46.296;7.524;2023-06-10T12:27:35;5.82;;;5.32;;
21181;SDS011;10749;46.296;7.524;2023-06-10T12:30:02;4.60;;;4.20;;
21181;SDS011;10749;46.296;7.524;2023-06-10T12:32:42;4.50;;;4.10;;
21181;SDS011;10749;46.296;7.524;2023-06-10T12:35:09;5.22;;;4.55;;
21181;SDS011;10749;46.296;7.524;2023-06-10T12:37:37;4.47;;;4.07;;
21181;SDS011;10749;46.296;7.524;2023-06-10T12:40:03;5.95;;;3.75;;
21181;SDS011;10749;46.296;7.524;2023-06-10T12:42:31;4.70;;;4.30;;
21181;SDS011;10749;46.296;7.524;2023-06-10T12:44:58;6.85;;;4.32;;
21181;SDS011;10749;46.296;7.524;2023-06-10T12:47:30;4.53;;;4.13;;
21181;SDS011;10749;46.296;7.524;2023-06-10T12:50:04;4.38;;;3.97;;
21181;SDS011;10749;46.296;7.524;2023-06-10T12:52:30;4.43;;;4.03;;
21181;SDS011;10749;46.296;7.524;2023-06-10T12:54:55;4.63;;;3.85;;
21181;SDS011;10749;46.296;7.524;2023-06-10T12:57:21;4.43;;;3.83;;
21181;SDS011;10749;46.296;7.524;2023-06-10T12:59:47;4.00;;;3.67;;
21181;SDS011;10749;46.296;7.524;2023-06-10T13:02:17;5.32;;;3.78;;
21181;SDS011;10749;46.296;7.524;2023-06-10T13:04:45;4.18;;;3.88;;
21181;SDS011;10749;46.296;7.524;2023-06-10T13:07:14;4.20;;;3.75;;
21181;SDS011;10749;46.296;7.524;2023-06-10T13:09:40;4.38;;;3.22;;
21181;SDS011;10749;46.296;7.524;2023-06-10T13:12:05;3.83;;;3.40;;
21181;SDS011;10749;46.296;7.524;2023-06-10T13:14:31;5.13;;;3.55;;
21181;SDS011;10749;46.296;7.524;2023-06-10T13:16:56;3.65;;;3.25;;
21181;SDS011;10749;46.296;7.524;2023-06-10T13:19:22;4.07;;;3.55;;
21181;SDS011;10749;46.296;7.524;2023-06-10T13:21:51;3.75;;;3.42;;
21181;SDS011;10749;46.296;7.524;2023-06-10T13:24:16;3.63;;;3.17;;
21181;SDS011;10749;46.296;7.524;2023-06-10T13:26:42;3.85;;;3.22;;
21181;SDS011;10749;46.296;7.524;2023-06-10T13:29:07;3.35;;;3.05;;
21181;SDS011;10749;46.296;7.524;2023-06-10T13:31:39;4.25;;;3.20;;
21181;SDS011;10749;46.296;7.524;2023-06-10T13:34:04;3.38;;;3.08;;
21181;SDS011;10749;46.296;7.524;2023-06-10T13:36:30;5.40;;;3.08;;
21181;SDS011;10749;46.296;7.524;2023-06-10T13:38:55;3.20;;;2.90;;
21181;SDS011;10749;46.296;7.524;2023-06-10T13:41:20;3.70;;;2.47;;
21181;SDS011;10749;46.296;7.524;2023-06-10T13:43:46;2.20;;;2.00;;
21181;SDS011;10749;46.296;7.524;2023-06-10T13:46:11;2.50;;;2.08;;
21181;SDS011;10749;46.296;7.524;2023-06-10T13:48:36;2.88;;;2.13;;
21181;SDS011;10749;46.296;7.524;2023-06-10T13:51:02;2.10;;;1.90;;
21181;SDS011;10749;46.296;7.524;2023-06-10T13:53:27;2.17;;;1.80;;
21181;SDS011;10749;46.296;7.524;2023-06-10T13:55:52;2.10;;;1.90;;
21181;SDS011;10749;46.296;7.524;2023-06-10T13:58:18;2.10;;;1.90;;
21181;SDS011;10749;46.296;7.524;2023-06-10T14:00:43;2.88;;;2.00;;
21181;SDS011;10749;46.296;7.524;2023-06-10T14:03:08;2.17;;;1.98;;
21181;SDS011;10749;46.296;7.524;2023-06-10T14:05:33;2.15;;;1.95;;
21181;SDS011;10749;46.296;7.524;2023-06-10T14:07:59;2.78;;;1.80;;
21181;SDS011;10749;46.296;7.524;2023-06-10T14:10:25;2.42;;;1.90;;
21181;SDS011;10749;46.296;7.524;2023-06-10T14:12:50;1.98;;;1.80;;
21181;SDS011;10749;46.296;7.524;2023-06-10T14:15:16;2.00;;;1.70;;
21181;SDS011;10749;46.296;7.524;2023-06-10T14:17:42;1.90;;;1.67;;
21181;SDS011;10749;46.296;7.524;2023-06-10T14:20:08;2.38;;;2.17;;
21181;SDS011;10749;46.296;7.524;2023-06-10T14:22:33;2.00;;;1.80;;
21181;SDS011;10749;46.296;7.524;2023-06-10T14:24:59;3.25;;;2.10;;
21181;SDS011;10749;46.296;7.524;2023-06-10T14:27:24;2.40;;;2.20;;
21181;SDS011;10749;46.296;7.524;2023-06-10T14:29:50;2.65;;;2.20;;
21181;SDS011;10749;46.296;7.524;2023-06-10T14:32:15;1.80;;;1.70;;
21181;SDS011;10749;46.296;7.524;2023-06-10T14:34:40;2.17;;;1.98;;
21181;SDS011;10749;46.296;7.524;2023-06-10T14:37:07;1.40;;;1.25;;
21181;SDS011;10749;46.296;7.524;2023-06-10T14:39:32;2.03;;;1.40;;
21181;SDS011;10749;46.296;7.524;2023-06-10T14:41:58;2.95;;;2.33;;
21181;SDS011;10749;46.296;7.524;2023-06-10T14:44:23;1.80;;;1.70;;
21181;SDS011;10749;46.296;7.524;2023-06-10T14:46:48;1.95;;;1.42;;
21181;SDS011;10749;46.296;7.524;2023-06-10T14:49:14;2.60;;;1.40;;
21181;SDS011;10749;46.296;7.524;2023-06-10T14:51:39;1.60;;;1.50;;
21181;SDS011;10749;46.296;7.524;2023-06-10T14:54:04;1.52;;;1.42;;